Time;durP1;ratioP1;P1;durP2;ratioP2;P2;SDS_P1;SDS_P2;PMS_P1;PMS_P2;Temp;Humidity;BMP_temperature;BMP_pressure;BME280_temperature;BME280_humidity;BME280_pressure;Samples;Min_cycle;Max_cycle;Signal;HPM_P1;HPM_P2
2023/03/01 00:01:50;;;;;;;14.23;9.73;;;2.60;93.80;;;;;;5044516;28;20200;-33
2023/03/01 00:04:19;;;;;;;12.73;10.03;;;2.60;93.80;;;;;;5045315;28;20223;-33
2023/03/01 00:06:49;;;;;;;13.60;10.17;;;2.60;93.80;;;;;;5046112;28;20200;-33
2023/03/01 00:09:21;;;;;;;13.87;9.53;;;2.60;93.80;;;;;;5051563;28;20220;-33
2023/03/01 00:11:48;;;;;;;12.50;9.87;;;2.60;93.80;;;;;;5029345;28;20722;-33
2023/03/01 00:14:20;;;;;;;13.93;10.20;;;2.60;93.80;;;;;;5028931;28;20201;-33
2023/03/01 00:16:47;;;;;;;12.90;10.00;;;2.60;93.80;;;;;;5034860;28;20224;-32
2023/03/01 00:19:17;;;;;;;14.53;9.80;;;2.50;93.70;;;;;;5046401;28;20239;-33
2023/03/01 00:21:47;;;;;;;15.10;10.60;;;2.50;93.80;;;;;;5059489;28;20204;-33
2023/03/01 00:24:14;;;;;;;15.37;9.73;;;2.50;93.80;;;;;;5045675;28;20319;-33
2023/03/01 00:26:46;;;;;;;12.40;10.10;;;2.50;93.80;;;;;;5048284;28;20203;-33
2023/03/01 00:29:13;;;;;;;12.73;9.60;;;2.50;93.80;;;;;;5032289;28;20255;-33
2023/03/01 00:31:43;;;;;;;14.33;9.50;;;2.50;93.80;;;;;;5041783;28;20212;-33
2023/03/01 00:34:10;;;;;;;13.23;9.53;;;2.50;93.80;;;;;;5045342;28;20200;-33
2023/03/01 00:36:39;;;;;;;12.10;9.47;;;2.50;93.80;;;;;;5047400;28;20216;-33
2023/03/01 00:39:14;;;;;;;12.13;9.17;;;2.40;93.80;;;;;;5044798;28;20461;-32
2023/03/01 00:41:46;;;;;;;12.43;9.13;;;2.40;93.90;;;;;;5046112;28;20196;-33
2023/03/01 00:44:13;;;;;;;10.57;8.87;;;2.40;93.80;;;;;;5045695;28;20291;-33
2023/03/01 00:46:40;;;;;;;11.17;9.07;;;2.40;93.80;;;;;;5045492;28;20218;-32
2023/03/01 00:49:08;;;;;;;14.00;8.87;;;2.40;93.80;;;;;;5044077;28;20200;-33
2023/03/01 00:51:35;;;;;;;15.67;8.93;;;2.40;93.80;;;;;;5045383;28;20199;-33
2023/03/01 00:54:03;;;;;;;11.63;9.63;;;2.40;93.80;;;;;;5044235;28;20252;-33
2023/03/01 00:56:31;;;;;;;15.57;9.63;;;2.30;93.80;;;;;;5044080;28;20267;-33
2023/03/01 00:59:02;;;;;;;11.47;9.50;;;2.30;93.80;;;;;;5045296;28;20214;-33
2023/03/01 01:01:31;;;;;;;13.90;9.70;;;2.30;93.80;;;;;;5045796;28;20227;-33
2023/03/01 01:04:16;;;;;;;12.03;8.97;;;2.30;93.80;;;;;;5044608;28;20237;-33
2023/03/01 01:06:46;;;;;;;13.13;9.37;;;2.30;93.80;;;;;;5045374;28;20694;-33
2023/03/01 01:09:17;;;;;;;13.23;9.50;;;2.30;93.80;;;;;;5044619;28;20218;-32
2023/03/01 01:11:49;;;;;;;11.13;9.00;;;2.30;93.80;;;;;;5042387;28;20200;-33
2023/03/01 01:14:19;;;;;;;11.23;9.07;;;2.30;93.80;;;;;;5038390;28;20590;-33
2023/03/01 01:16:48;;;;;;;11.80;9.27;;;2.20;93.80;;;;;;5032712;28;20303;-33
2023/03/01 01:19:15;;;;;;;10.77;8.67;;;2.20;93.80;;;;;;5024867;28;20211;-32
2023/03/01 01:21:46;;;;;;;10.70;9.10;;;2.20;93.80;;;;;;5038612;28;20219;-33
2023/03/01 01:24:16;;;;;;;12.87;9.57;;;2.20;93.80;;;;;;5043413;28;20211;-33
2023/03/01 01:26:46;;;;;;;13.07;9.50;;;2.20;93.80;;;;;;5047505;28;20210;-33
2023/03/01 01:29:14;;;;;;;12.37;8.37;;;2.20;93.80;;;;;;5044696;28;20748;-33
2023/03/01 01:31:45;;;;;;;10.60;9.20;;;2.10;93.80;;;;;;5059335;28;20242;-33
2023/03/01 01:34:18;;;;;;;12.83;8.70;;;2.10;93.80;;;;;;5045737;28;20200;-33
2023/03/01 01:36:55;;;;;;;12.97;8.97;;;2.00;93.90;;;;;;5042041;28;20224;-33
2023/03/01 01:39:24;;;;;;;11.13;8.60;;;2.00;93.80;;;;;;5039676;28;20567;-33
2023/03/01 01:41:51;;;;;;;13.23;9.50;;;2.00;93.80;;;;;;5029267;28;20203;-33
2023/03/01 01:44:24;;;;;;;12.03;8.73;;;2.00;93.90;;;;;;5035691;28;20308;-33
2023/03/01 01:47:29;;;;;;;12.90;8.73;;;2.00;93.90;;;;;;5029711;28;20212;-33
2023/03/01 01:49:57;;;;;;;11.57;8.27;;;2.00;93.80;;;;;;5012046;28;20614;-33
2023/03/01 01:52:33;;;;;;;11.87;9.27;;;2.00;93.80;;;;;;5021823;28;20212;-33
2023/03/01 01:55:08;;;;;;;10.63;8.37;;;2.00;93.90;;;;;;5035926;28;20211;-33
2023/03/01 01:57:58;;;;;;;12.83;9.10;;;2.00;93.90;;;;;;5043572;28;20203;-33
2023/03/01 02:00:30;;;;;;;12.60;8.87;;;2.00;93.90;;;;;;5043248;28;20204;-32
2023/03/01 02:03:05;;;;;;;12.43;8.80;;;1.90;93.90;;;;;;5043484;28;20222;-33
2023/03/01 02:06:06;;;;;;;13.20;8.73;;;1.90;93.80;;;;;;5044885;28;20652;-32
2023/03/01 02:08:37;;;;;;;11.60;8.93;;;1.90;93.80;;;;;;5033604;28;20611;-33
2023/03/01 02:11:11;;;;;;;11.90;8.83;;;1.90;93.80;;;;;;5030314;28;20215;-33
2023/03/01 02:13:41;;;;;;;14.43;9.03;;;1.80;93.80;;;;;;5031072;28;20228;-33
2023/03/01 02:16:10;;;;;;;13.13;9.57;;;1.80;93.80;;;;;;5043486;28;20608;-33
2023/03/01 02:18:39;;;;;;;11.03;8.57;;;1.80;93.90;;;;;;5043156;28;20231;-33
2023/03/01 02:21:34;;;;;;;12.47;9.10;;;1.80;93.90;;;;;;5043453;28;20216;-32
2023/03/01 02:24:28;;;;;;;11.53;9.20;;;1.80;94.10;;;;;;5035018;28;20593;-33
2023/03/01 02:26:59;;;;;;;11.37;9.20;;;1.70;94.00;;;;;;5049594;28;20459;-33
2023/03/01 02:29:28;;;;;;;11.17;8.73;;;1.70;94.00;;;;;;5047625;28;20216;-33
2023/03/01 02:31:58;;;;;;;11.50;8.87;;;1.70;94.00;;;;;;5029735;28;20618;-33
2023/03/01 02:34:26;;;;;;;14.10;8.90;;;1.70;93.90;;;;;;5043735;28;20200;-32
2023/03/01 02:37:04;;;;;;;15.33;9.10;;;1.80;93.90;;;;;;5051209;28;20231;-33
2023/03/01 02:39:45;;;;;;;9.70;8.33;;;1.70;93.90;;;;;;5047714;28;20280;-33
2023/03/01 02:42:16;;;;;;;11.60;8.43;;;1.70;93.90;;;;;;5046396;28;20210;-32
2023/03/01 02:44:46;;;;;;;10.87;8.23;;;1.70;93.80;;;;;;5047638;28;20211;-34
2023/03/01 02:47:13;;;;;;;13.27;9.27;;;1.70;93.80;;;;;;5047519;28;20204;-33
2023/03/01 02:49:40;;;;;;;11.07;8.50;;;1.70;93.80;;;;;;5047542;28;20588;-32
2023/03/01 02:52:32;;;;;;;10.60;8.43;;;1.70;93.80;;;;;;5046944;28;20234;-33
2023/03/01 02:55:13;;;;;;;10.10;8.27;;;1.70;93.80;;;;;;5045898;28;20200;-33
2023/03/01 02:57:44;;;;;;;11.43;8.87;;;1.70;93.80;;;;;;5047400;28;20863;-33
2023/03/01 03:00:21;;;;;;;12.87;8.23;;;1.60;93.70;;;;;;5045844;28;20200;-33
2023/03/01 03:02:52;;;;;;;12.30;9.23;;;1.60;93.70;;;;;;5046760;28;20211;-32
2023/03/01 03:05:30;;;;;;;13.60;9.40;;;1.60;93.80;;;;;;5047501;28;20319;-33
2023/03/01 03:08:02;;;;;;;11.80;8.83;;;1.60;93.80;;;;;;5043381;28;20636;-33
2023/03/01 03:10:35;;;;;;;12.53;8.87;;;1.50;93.70;;;;;;5044835;28;20683;-33
2023/03/01 03:13:10;;;;;;;11.27;8.43;;;1.50;93.70;;;;;;5046468;28;20210;-33
2023/03/01 03:15:43;;;;;;;14.83;9.37;;;1.50;93.70;;;;;;5044831;28;20222;-33
2023/03/01 03:18:14;;;;;;;14.07;8.97;;;1.40;93.70;;;;;;5046394;28;20346;-33
2023/03/01 03:20:45;;;;;;;14.07;9.53;;;1.40;93.70;;;;;;5044766;28;20197;-33
2023/03/01 03:23:12;;;;;;;12.53;8.67;;;1.40;93.80;;;;;;5044715;28;20311;-32
2023/03/01 03:25:39;;;;;;;11.43;9.47;;;1.40;93.90;;;;;;5045624;28;20290;-32
2023/03/01 03:28:11;;;;;;;13.03;8.97;;;1.40;93.80;;;;;;5048500;28;20310;-33
2023/03/01 03:30:41;;;;;;;11.67;9.57;;;1.40;93.80;;;;;;5046396;28;20274;-33
2023/03/01 03:33:12;;;;;;;14.00;9.33;;;1.40;93.80;;;;;;5045862;28;20238;-33
2023/03/01 03:35:45;;;;;;;10.97;8.93;;;1.30;93.70;;;;;;5061007;28;20216;-32
2023/03/01 03:38:21;;;;;;;11.30;8.93;;;1.30;93.80;;;;;;5044984;28;20202;-32
2023/03/01 03:41:00;;;;;;;10.77;8.80;;;1.30;93.80;;;;;;5041791;28;20219;-33
2023/03/01 03:43:28;;;;;;;12.80;8.57;;;1.30;93.80;;;;;;5046561;28;20204;-33
2023/03/01 03:46:05;;;;;;;13.27;8.70;;;1.30;93.80;;;;;;5060645;28;20466;-32
2023/03/01 03:48:40;;;;;;;13.80;8.63;;;1.20;93.80;;;;;;5045772;28;20232;-37
2023/03/01 03:51:14;;;;;;;15.23;9.20;;;1.30;93.80;;;;;;5037158;28;20216;-33
2023/03/01 03:53:41;;;;;;;13.43;9.20;;;1.20;93.80;;;;;;5035463;28;20231;-33
2023/03/01 03:56:11;;;;;;;9.40;8.30;;;1.30;93.80;;;;;;5041440;28;20795;-33
2023/03/01 03:58:39;;;;;;;14.00;9.37;;;1.20;93.70;;;;;;5034058;28;20242;-32
2023/03/01 04:01:06;;;;;;;12.17;8.70;;;1.20;93.70;;;;;;5051457;28;20287;-33
2023/03/01 04:03:34;;;;;;;11.37;8.60;;;1.20;93.80;;;;;;5045464;28;20639;-33
2023/03/01 04:06:05;;;;;;;10.60;8.27;;;1.20;93.80;;;;;;5043873;28;20232;-33
2023/03/01 04:08:33;;;;;;;12.03;9.07;;;1.20;93.80;;;;;;5043233;28;20295;-33
2023/03/01 04:11:25;;;;;;;13.90;8.47;;;1.20;93.80;;;;;;5044328;28;20728;-33
2023/03/01 04:13:59;;;;;;;12.13;8.80;;;1.10;93.70;;;;;;5045479;28;20356;-33
2023/03/01 04:16:29;;;;;;;13.17;9.30;;;1.10;93.70;;;;;;5034613;28;20727;-33
2023/03/01 04:19:00;;;;;;;12.73;8.97;;;1.10;93.80;;;;;;5028866;28;20204;-32
2023/03/01 04:21:30;;;;;;;12.30;9.10;;;1.10;93.90;;;;;;5044134;28;20761;-33
2023/03/01 04:23:57;;;;;;;11.83;8.53;;;1.10;93.80;;;;;;5044164;28;20196;-32
2023/03/01 04:26:26;;;;;;;14.53;9.23;;;1.10;93.90;;;;;;5048390;28;21027;-33
2023/03/01 04:28:56;;;;;;;14.10;9.27;;;1.00;94.10;;;;;;5045350;28;20216;-33
2023/03/01 04:31:25;;;;;;;11.60;8.77;;;1.00;94.10;;;;;;5046469;28;20278;-33
2023/03/01 04:33:56;;;;;;;14.77;9.13;;;1.00;94.10;;;;;;5044970;28;20216;-32
2023/03/01 04:36:25;;;;;;;13.00;9.30;;;1.00;94.00;;;;;;5046957;28;20212;-33
2023/03/01 04:38:55;;;;;;;14.90;9.60;;;1.00;94.20;;;;;;5044634;28;20230;-33
2023/03/01 04:41:24;;;;;;;13.60;9.93;;;1.00;94.10;;;;;;5045258;28;20705;-32
2023/03/01 04:43:51;;;;;;;13.60;9.27;;;1.00;94.00;;;;;;5043591;28;20207;-33
2023/03/01 04:46:20;;;;;;;12.83;9.80;;;1.00;94.00;;;;;;5045589;28;20299;-33
2023/03/01 04:48:50;;;;;;;12.07;9.20;;;1.00;94.00;;;;;;5045415;28;20225;-33
2023/03/01 04:51:18;;;;;;;13.23;9.53;;;1.00;93.90;;;;;;5045476;28;20213;-33
2023/03/01 04:53:47;;;;;;;15.80;9.80;;;1.00;93.90;;;;;;5042821;28;20310;-33
2023/03/01 04:56:15;;;;;;;14.40;9.07;;;1.00;94.00;;;;;;5045488;28;20720;-33
2023/03/01 04:58:43;;;;;;;11.30;9.00;;;1.00;94.00;;;;;;5045459;28;20204;-33
2023/03/01 05:01:18;;;;;;;10.50;8.17;;;1.00;93.80;;;;;;5045616;28;20216;-33
2023/03/01 05:03:50;;;;;;;17.00;9.47;;;0.90;94.00;;;;;;5044554;28;20203;-33
2023/03/01 05:06:19;;;;;;;11.33;9.60;;;0.90;94.10;;;;;;5044961;28;20285;-33
2023/03/01 05:08:47;;;;;;;11.70;9.07;;;0.90;94.00;;;;;;5044060;28;20204;-33
2023/03/01 05:11:14;;;;;;;16.23;9.23;;;0.90;93.90;;;;;;5027763;28;20624;-32
2023/03/01 05:13:45;;;;;;;12.63;9.30;;;0.90;93.90;;;;;;5042526;28;20215;-33
2023/03/01 05:16:16;;;;;;;13.80;9.47;;;0.90;93.90;;;;;;5044018;28;20243;-33
2023/03/01 05:18:46;;;;;;;11.80;9.20;;;0.90;93.90;;;;;;5045603;28;20212;-33
2023/03/01 05:21:17;;;;;;;11.90;9.10;;;0.80;93.90;;;;;;5039940;28;20300;-33
2023/03/01 05:23:47;;;;;;;12.23;8.70;;;0.80;93.90;;;;;;5033026;28;20269;-33
2023/03/01 05:26:21;;;;;;;14.30;8.93;;;0.80;94.00;;;;;;5048327;28;20207;-33
2023/03/01 05:29:09;;;;;;;11.47;8.50;;;0.80;94.20;;;;;;5042844;28;20663;-32
2023/03/01 05:31:37;;;;;;;11.53;8.70;;;0.80;93.90;;;;;;5043200;28;20203;-33
2023/03/01 05:34:07;;;;;;;12.23;8.33;;;0.80;93.90;;;;;;5043894;28;20539;-33
2023/03/01 05:36:39;;;;;;;12.00;8.57;;;0.70;93.80;;;;;;5044183;28;20247;-33
2023/03/01 05:39:08;;;;;;;11.00;8.57;;;0.70;93.80;;;;;;5043242;28;20195;-34
2023/03/01 05:41:37;;;;;;;13.03;9.10;;;0.70;93.80;;;;;;5029720;28;20212;-32
2023/03/01 05:44:06;;;;;;;13.97;9.07;;;0.70;93.80;;;;;;5051004;28;20624;-32
2023/03/01 05:46:36;;;;;;;11.87;8.93;;;0.60;93.80;;;;;;5024882;28;20691;-33
2023/03/01 05:49:05;;;;;;;10.43;7.97;;;0.60;93.80;;;;;;5037067;28;20345;-33
2023/03/01 05:51:34;;;;;;;12.67;8.30;;;0.60;93.90;;;;;;5044238;28;20243;-32
2023/03/01 05:54:02;;;;;;;13.43;8.70;;;0.60;93.80;;;;;;5041076;28;20703;-33
2023/03/01 05:56:29;;;;;;;11.20;8.77;;;0.60;93.90;;;;;;5025894;28;20227;-33
2023/03/01 05:58:59;;;;;;;12.63;9.50;;;0.60;93.90;;;;;;5051643;28;20212;-33
2023/03/01 06:01:29;;;;;;;11.43;8.67;;;0.60;93.90;;;;;;5048483;28;20219;-33
2023/03/01 06:03:56;;;;;;;11.53;8.60;;;0.60;93.90;;;;;;5045648;28;20210;-33
2023/03/01 06:06:24;;;;;;;11.90;8.93;;;0.60;94.00;;;;;;5045098;28;20204;-34
2023/03/01 06:08:55;;;;;;;11.73;9.50;;;0.50;94.30;;;;;;5041642;28;20281;-32
2023/03/01 06:11:25;;;;;;;10.67;8.53;;;0.50;94.00;;;;;;5040958;28;20231;-33
2023/03/01 06:13:52;;;;;;;12.57;9.20;;;0.50;94.00;;;;;;5043997;28;20926;-33
2023/03/01 06:16:20;;;;;;;15.33;9.20;;;0.50;94.00;;;;;;5062324;28;20200;-33
2023/03/01 06:18:49;;;;;;;14.47;9.17;;;0.50;94.10;;;;;;5047614;28;20581;-33
2023/03/01 06:21:21;;;;;;;12.90;8.87;;;0.50;94.00;;;;;;5047036;28;20707;-32
2023/03/01 06:23:48;;;;;;;15.10;9.07;;;0.50;93.90;;;;;;5046168;28;20726;-32
2023/03/01 06:26:15;;;;;;;11.43;8.87;;;0.50;93.90;;;;;;5043222;28;20675;-32
2023/03/01 06:28:45;;;;;;;10.83;8.17;;;0.50;93.90;;;;;;5044531;28;20303;-33
2023/03/01 06:31:17;;;;;;;11.73;9.13;;;0.50;93.80;;;;;;5042932;28;20199;-33
2023/03/01 06:33:49;;;;;;;13.33;9.10;;;0.50;93.90;;;;;;5047123;28;20761;-32
2023/03/01 06:36:20;;;;;;;13.97;9.20;;;0.50;93.90;;;;;;5041350;28;20228;-32
2023/03/01 06:38:50;;;;;;;12.67;9.87;;;0.50;93.90;;;;;;5058888;28;20747;-32
2023/03/01 06:41:17;;;;;;;13.40;9.53;;;0.50;94.10;;;;;;5047597;28;20309;-33
2023/03/01 06:43:49;;;;;;;11.83;8.43;;;0.50;94.00;;;;;;5045942;28;20319;-33
2023/03/01 06:46:18;;;;;;;14.33;8.60;;;0.40;94.00;;;;;;5034239;28;20304;-32
2023/03/01 06:48:48;;;;;;;12.77;9.13;;;0.40;93.90;;;;;;5047170;28;20468;-33
2023/03/01 06:51:16;;;;;;;16.47;9.90;;;0.40;93.90;;;;;;5045294;28;20208;-33
2023/03/01 06:53:46;;;;;;;19.17;9.53;;;0.50;93.90;;;;;;5044683;28;20229;-33
2023/03/01 06:56:15;;;;;;;12.03;8.77;;;0.50;94.00;;;;;;5046033;28;20543;-32
2023/03/01 06:58:43;;;;;;;13.90;9.57;;;0.50;93.90;;;;;;5047181;28;20255;-33
2023/03/01 07:01:10;;;;;;;12.43;9.17;;;0.50;94.10;;;;;;5047126;28;20269;-32
2023/03/01 07:03:37;;;;;;;12.57;9.17;;;0.50;94.10;;;;;;5047467;28;20287;-32
2023/03/01 07:06:04;;;;;;;16.53;9.90;;;0.50;94.10;;;;;;5045846;28;20294;-33
2023/03/01 07:08:32;;;;;;;13.90;9.67;;;0.50;94.50;;;;;;5040557;28;20599;-33
2023/03/01 07:11:01;;;;;;;12.97;9.57;;;0.50;94.20;;;;;;5040917;28;20208;-32
2023/03/01 07:13:31;;;;;;;13.43;9.50;;;0.60;94.30;;;;;;5034270;28;20659;-33
2023/03/01 07:15:58;;;;;;;16.20;9.67;;;0.60;94.30;;;;;;5061209;28;20212;-32
2023/03/01 07:18:30;;;;;;;15.03;10.13;;;0.60;94.10;;;;;;5046028;28;20639;-33
2023/03/01 07:21:09;;;;;;;13.03;9.23;;;0.60;94.50;;;;;;5043483;28;20196;-33
2023/03/01 07:23:36;;;;;;;14.67;9.40;;;0.60;94.30;;;;;;5042786;28;20250;-33
2023/03/01 07:26:08;;;;;;;14.50;10.17;;;0.70;94.30;;;;;;5044872;28;20212;-32
2023/03/01 07:28:38;;;;;;;13.33;9.47;;;0.70;94.30;;;;;;5047209;28;20319;-33
2023/03/01 07:31:06;;;;;;;12.33;8.93;;;0.70;94.30;;;;;;5062169;28;20724;-32
2023/03/01 07:33:35;;;;;;;17.53;10.30;;;0.80;94.40;;;;;;5046516;28;20592;-33
2023/03/01 07:36:04;;;;;;;13.43;9.97;;;0.70;95.10;;;;;;5048002;28;20319;-33
2023/03/01 07:38:36;;;;;;;14.50;10.03;;;0.80;94.50;;;;;;5045347;28;20341;-33
2023/03/01 07:41:06;;;;;;;13.17;9.17;;;0.80;94.60;;;;;;5039993;28;20210;-33
2023/03/01 07:43:33;;;;;;;15.17;10.53;;;0.80;94.70;;;;;;5049872;28;20200;-35
2023/03/01 07:46:04;;;;;;;18.33;10.17;;;0.80;95.00;;;;;;5044149;28;20215;-33
2023/03/01 07:48:34;;;;;;;14.90;9.17;;;0.70;95.70;;;;;;5066389;28;20202;-32
2023/03/01 07:51:07;;;;;;;15.10;9.87;;;0.80;95.00;;;;;;5055986;28;20311;-32
2023/03/01 07:53:35;;;;;;;15.20;9.17;;;0.80;94.90;;;;;;5042172;28;20672;-33
2023/03/01 07:56:11;;;;;;;14.23;8.93;;;0.90;95.10;;;;;;5039715;28;20208;-32
2023/03/01 07:58:45;;;;;;;14.50;9.13;;;0.90;94.90;;;;;;5045221;28;20220;-33
2023/03/01 08:01:19;;;;;;;15.97;10.37;;;1.00;94.80;;;;;;5046125;28;20281;-33
2023/03/01 08:03:49;;;;;;;17.30;10.90;;;1.00;94.90;;;;;;5043970;28;20236;-33
2023/03/01 08:06:17;;;;;;;14.13;8.87;;;1.00;95.20;;;;;;5049192;28;20695;-33
2023/03/01 08:08:45;;;;;;;16.20;9.40;;;1.10;95.20;;;;;;5034333;28;20239;-33
2023/03/01 08:11:16;;;;;;;14.30;9.77;;;1.10;95.00;;;;;;5061091;28;20385;-33
2023/03/01 08:13:47;;;;;;;16.07;10.23;;;1.20;95.10;;;;;;5041890;28;20759;-32
2023/03/01 08:16:23;;;;;;;12.40;8.93;;;1.20;95.10;;;;;;5043075;28;20565;-33
2023/03/01 08:18:50;;;;;;;16.47;9.33;;;1.30;95.10;;;;;;5045763;28;20228;-33
2023/03/01 08:21:20;;;;;;;13.77;9.23;;;1.40;95.10;;;;;;5044160;28;20200;-33
2023/03/01 08:23:52;;;;;;;18.23;10.20;;;1.40;95.20;;;;;;5042771;28;20207;-32
2023/03/01 08:26:21;;;;;;;14.07;9.97;;;1.30;95.80;;;;;;5045162;28;20223;-32
2023/03/01 08:28:50;;;;;;;17.63;10.33;;;1.40;95.50;;;;;;5044584;28;20236;-33
2023/03/01 08:31:18;;;;;;;15.60;10.73;;;1.40;95.30;;;;;;5046242;28;20686;-33
2023/03/01 08:33:55;;;;;;;13.43;10.53;;;1.50;95.50;;;;;;5044961;28;20209;-32
2023/03/01 08:36:31;;;;;;;18.47;10.93;;;1.60;95.50;;;;;;5043375;28;20298;-32
2023/03/01 08:39:01;;;;;;;12.83;10.00;;;1.60;95.50;;;;;;5044202;28;20219;-32
2023/03/01 08:41:28;;;;;;;14.83;10.47;;;1.70;95.80;;;;;;5060561;28;20266;-32
2023/03/01 08:43:58;;;;;;;14.27;9.80;;;1.70;95.40;;;;;;5057721;28;20200;-33
2023/03/01 08:46:40;;;;;;;15.87;10.40;;;1.80;95.40;;;;;;5050635;28;20212;-32
2023/03/01 08:49:16;;;;;;;16.27;10.93;;;1.80;95.80;;;;;;5063750;28;20477;-32
2023/03/01 08:51:47;;;;;;;18.03;11.03;;;1.90;95.90;;;;;;5047721;28;20219;-33
2023/03/01 08:54:19;;;;;;;12.03;9.50;;;1.90;96.30;;;;;;5027085;28;20244;-32
2023/03/01 08:56:51;;;;;;;15.73;10.97;;;1.90;95.80;;;;;;5048813;28;20784;-32
2023/03/01 08:59:24;;;;;;;14.93;10.23;;;2.00;96.00;;;;;;5052710;28;20224;-31
2023/03/01 09:01:56;;;;;;;19.87;10.70;;;2.00;96.20;;;;;;5046291;28;20208;-32
2023/03/01 09:04:24;;;;;;;18.60;11.23;;;2.10;96.30;;;;;;5046322;28;20197;-32
2023/03/01 09:06:53;;;;;;;16.57;10.70;;;2.10;96.10;;;;;;5044885;28;20216;-33
2023/03/01 09:09:21;;;;;;;14.97;10.20;;;2.10;96.20;;;;;;5055944;28;20291;-33
2023/03/01 09:11:49;;;;;;;14.17;10.07;;;2.20;96.10;;;;;;5044939;28;20208;-33
2023/03/01 09:14:17;;;;;;;16.80;10.93;;;2.30;96.30;;;;;;5039350;28;20706;-33
2023/03/01 09:16:49;;;;;;;13.77;10.43;;;2.40;96.20;;;;;;5044574;28;20212;-32
2023/03/01 09:19:18;;;;;;;17.53;10.53;;;2.40;96.20;;;;;;5034488;28;20339;-32
2023/03/01 09:21:51;;;;;;;16.03;11.33;;;2.50;96.20;;;;;;5035718;28;20196;-32
2023/03/01 09:24:24;;;;;;;15.27;10.77;;;2.50;96.50;;;;;;5042643;28;20224;-36
2023/03/01 09:26:55;;;;;;;15.97;10.20;;;2.60;96.20;;;;;;5043728;28;20370;-32
2023/03/01 09:29:26;;;;;;;14.07;10.27;;;2.70;96.30;;;;;;5044527;28;20207;-33
2023/03/01 09:31:54;;;;;;;17.80;10.43;;;2.70;96.30;;;;;;5038225;28;20299;-32
2023/03/01 09:34:23;;;;;;;15.50;11.03;;;2.80;96.40;;;;;;5039767;28;20211;-32
2023/03/01 09:36:51;;;;;;;13.33;10.80;;;2.90;96.40;;;;;;5040668;28;20223;-33
2023/03/01 09:39:21;;;;;;;18.80;10.53;;;3.00;96.30;;;;;;5043490;28;20282;-32
2023/03/01 09:42:04;;;;;;;15.63;11.37;;;3.00;96.60;;;;;;5045031;28;20572;-32
2023/03/01 09:44:40;;;;;;;18.33;10.97;;;3.00;96.50;;;;;;5044079;28;20192;-32
2023/03/01 09:47:19;;;;;;;20.63;11.27;;;3.10;96.70;;;;;;5040673;28;20200;-32
2023/03/01 09:50:17;;;;;;;16.03;11.23;;;3.20;96.60;;;;;;5045114;28;20635;-32
2023/03/01 09:53:16;;;;;;;14.23;11.17;;;3.30;96.60;;;;;;5041976;28;20662;-33
2023/03/01 09:55:51;;;;;;;18.57;11.37;;;3.30;96.80;;;;;;5039574;28;20698;-32
2023/03/01 09:58:27;;;;;;;18.53;11.10;;;3.30;96.60;;;;;;5051316;28;20277;-33
2023/03/01 10:00:59;;;;;;;16.60;11.30;;;3.40;96.70;;;;;;5056574;28;20686;-33
2023/03/01 10:03:28;;;;;;;14.20;11.17;;;3.40;96.70;;;;;;5044561;28;20399;-32
2023/03/01 10:05:56;;;;;;;13.87;10.50;;;3.50;96.80;;;;;;5041361;28;20396;-32
2023/03/01 10:08:36;;;;;;;16.27;12.00;;;3.60;96.70;;;;;;5042091;28;20679;-31
2023/03/01 10:11:12;;;;;;;16.17;11.73;;;3.70;96.80;;;;;;5061020;28;20203;-32
2023/03/01 10:13:53;;;;;;;16.83;11.70;;;3.80;96.80;;;;;;5042480;28;20532;-32
2023/03/01 10:16:42;;;;;;;15.97;11.80;;;3.80;96.90;;;;;;5045570;28;20215;-32
2023/03/01 10:19:23;;;;;;;18.00;11.03;;;3.80;96.80;;;;;;5063070;28;20228;-31
2023/03/01 10:21:51;;;;;;;17.57;12.20;;;3.90;96.90;;;;;;5041903;28;20748;-32
2023/03/01 10:24:22;;;;;;;17.10;12.03;;;3.90;96.80;;;;;;5043743;28;20224;-32
2023/03/01 10:27:04;;;;;;;17.37;11.87;;;4.00;96.90;;;;;;5041873;28;20205;-33
2023/03/01 10:29:38;;;;;;;19.97;12.20;;;4.10;97.00;;;;;;5039219;28;20204;-33
2023/03/01 10:32:08;;;;;;;16.20;11.00;;;4.10;96.90;;;;;;5059432;28;20232;-32
2023/03/01 10:34:38;;;;;;;17.90;11.17;;;4.20;97.00;;;;;;5044296;28;20224;-33
2023/03/01 10:37:25;;;;;;;21.43;11.77;;;4.20;96.80;;;;;;5039394;28;20281;-33
2023/03/01 10:40:05;;;;;;;15.57;11.20;;;4.30;96.80;;;;;;5036396;28;20604;-33
2023/03/01 10:42:38;;;;;;;14.13;10.87;;;4.30;96.40;;;;;;5044981;28;20208;-32
2023/03/01 10:45:23;;;;;;;14.57;11.00;;;4.40;96.70;;;;;;5030746;28;20339;-33
2023/03/01 10:48:05;;;;;;;19.57;10.60;;;4.50;96.70;;;;;;5041518;28;20226;-33
2023/03/01 10:50:32;;;;;;;17.23;11.57;;;4.50;96.60;;;;;;5038651;28;20244;-32
2023/03/01 10:53:04;;;;;;;14.50;10.63;;;4.60;96.70;;;;;;5045896;28;20236;-32
2023/03/01 10:55:40;;;;;;;15.03;10.73;;;4.60;96.70;;;;;;5046719;28;20208;-33
2023/03/01 10:58:07;;;;;;;16.27;11.93;;;4.80;96.80;;;;;;5046376;28;20226;-33
2023/03/01 11:00:47;;;;;;;14.77;10.87;;;4.80;96.80;;;;;;5049697;28;20208;-33
2023/03/01 11:03:22;;;;;;;13.60;10.47;;;4.90;96.90;;;;;;5047940;28;20193;-32
2023/03/01 11:06:11;;;;;;;14.70;10.13;;;5.00;97.10;;;;;;5044077;28;20214;-33
2023/03/01 11:08:46;;;;;;;14.57;10.77;;;5.10;97.10;;;;;;5034683;28;20610;-32
2023/03/01 11:11:33;;;;;;;18.07;11.20;;;5.10;97.00;;;;;;5041037;28;20277;-32
2023/03/01 11:14:12;;;;;;;16.50;10.53;;;5.10;96.70;;;;;;5039015;28;20208;-32
2023/03/01 11:17:15;;;;;;;15.47;10.60;;;5.10;96.70;;;;;;5044040;28;20224;-32
2023/03/01 11:19:42;;;;;;;14.53;10.70;;;5.10;96.40;;;;;;5044935;28;20604;-33
2023/03/01 11:22:21;;;;;;;14.27;10.90;;;5.20;96.50;;;;;;5060584;28;20586;-33
2023/03/01 11:24:55;;;;;;;15.97;11.47;;;5.20;96.60;;;;;;5045494;28;20204;-32
2023/03/01 11:27:44;;;;;;;14.13;10.13;;;5.20;96.70;;;;;;5040782;28;20226;-33
2023/03/01 11:30:23;;;;;;;16.33;11.33;;;5.40;97.30;;;;;;5037708;28;20193;-33
2023/03/01 11:33:04;;;;;;;14.83;9.93;;;5.40;96.90;;;;;;5026876;28;20703;-32
2023/03/01 11:35:37;;;;;;;14.07;10.63;;;5.40;96.50;;;;;;5040052;28;20243;-33
2023/03/01 11:38:10;;;;;;;18.07;10.57;;;5.50;97.20;;;;;;5037397;28;20939;-33
2023/03/01 11:40:41;;;;;;;15.97;9.57;;;5.60;96.90;;;;;;5039834;28;20193;-33
2023/03/01 11:43:30;;;;;;;14.60;9.93;;;5.60;96.50;;;;;;5042174;28;20265;-33
2023/03/01 11:46:28;;;;;;;18.10;10.70;;;5.50;95.60;;;;;;5040867;28;20630;-33
2023/03/01 11:49:07;;;;;;;13.60;9.80;;;5.60;96.50;;;;;;5045470;28;20240;-33
2023/03/01 11:52:00;;;;;;;18.77;10.20;;;5.70;96.40;;;;;;5035572;28;20286;-33
2023/03/01 11:54:51;;;;;;;14.27;9.93;;;5.70;95.90;;;;;;5037937;28;20258;-33
2023/03/01 11:57:27;;;;;;;14.23;10.40;;;5.70;96.50;;;;;;5031287;28;20223;-32
2023/03/01 12:00:20;;;;;;;14.27;9.47;;;5.80;96.60;;;;;;5062789;28;20598;-33
2023/03/01 12:03:08;;;;;;;13.63;9.33;;;5.90;96.60;;;;;;5024537;28;20196;-33
2023/03/01 12:05:52;;;;;;;14.47;10.53;;;5.90;96.70;;;;;;5042536;28;20689;-33
2023/03/01 12:08:42;;;;;;;14.13;10.53;;;6.00;96.80;;;;;;5025618;28;20204;-32
2023/03/01 12:11:49;;;;;;;14.97;9.53;;;6.00;96.60;;;;;;5029575;28;20726;-33
2023/03/01 12:14:45;;;;;;;13.07;9.30;;;6.10;96.40;;;;;;5058845;28;20204;-32
2023/03/01 12:17:36;;;;;;;12.67;9.33;;;6.10;96.50;;;;;;4988604;28;20210;-33
2023/03/01 12:20:21;;;;;;;12.27;9.30;;;6.20;97.00;;;;;;5041888;28;20232;-33
2023/03/01 12:23:12;;;;;;;16.43;9.77;;;6.30;97.20;;;;;;5030270;28;20491;-32
2023/03/01 12:26:00;;;;;;;12.17;9.30;;;6.40;96.10;;;;;;5054123;28;20201;-32
2023/03/01 12:28:51;;;;;;;16.33;10.77;;;6.30;96.00;;;;;;5035169;28;20221;-33
2023/03/01 12:31:25;;;;;;;12.87;9.73;;;6.30;96.20;;;;;;5057302;28;20212;-33
2023/03/01 12:34:08;;;;;;;15.93;9.83;;;6.40;95.90;;;;;;5031730;28;20200;-33
2023/03/01 12:36:46;;;;;;;14.60;9.97;;;6.50;96.60;;;;;;5042981;28;20261;-32
2023/03/01 12:39:39;;;;;;;15.50;10.57;;;6.60;96.90;;;;;;5036314;28;20230;-33
2023/03/01 12:42:47;;;;;;;14.47;9.77;;;6.60;96.50;;;;;;5011066;28;20238;-32
2023/03/01 12:45:20;;;;;;;15.70;10.47;;;6.60;96.40;;;;;;5040052;28;20204;-33
2023/03/01 12:48:18;;;;;;;13.20;9.30;;;6.60;96.10;;;;;;5026335;28;20209;-33
2023/03/01 12:50:53;;;;;;;15.93;10.43;;;6.60;96.80;;;;;;5038195;28;20201;-33
2023/03/01 12:53:35;;;;;;;16.43;10.23;;;6.70;96.40;;;;;;5043773;28;20236;-33
2023/03/01 12:56:06;;;;;;;13.67;9.70;;;6.80;96.30;;;;;;5042822;28;20775;-32
2023/03/01 12:59:04;;;;;;;11.20;9.30;;;6.70;96.10;;;;;;5042913;28;20530;-33
2023/03/01 13:02:11;;;;;;;13.37;10.20;;;6.70;96.20;;;;;;5031162;28;20204;-33
2023/03/01 13:04:57;;;;;;;14.33;9.73;;;6.80;96.20;;;;;;5030862;28;20283;-33
2023/03/01 13:07:55;;;;;;;12.93;9.80;;;6.80;96.40;;;;;;5024063;28;20199;-33
2023/03/01 13:10:32;;;;;;;16.77;10.93;;;6.80;96.40;;;;;;5025789;28;20209;-32
2023/03/01 13:13:20;;;;;;;15.70;10.20;;;6.90;96.20;;;;;;5037637;28;20243;-32
2023/03/01 13:15:51;;;;;;;12.87;9.23;;;6.90;96.50;;;;;;5034077;28;20585;-33
2023/03/01 13:18:25;;;;;;;12.97;9.50;;;6.90;96.60;;;;;;5044140;28;20200;-32